Windsor Locks, CT (06096)

6:59 AM EDT on April 28, 2017 (GMT -0400)
Cricket Road | | Change Station

Elev 164 ft 41.93 °N, 72.60 °W | Updated 2 minutes ago

Fog
Fog
59.2 °F
Feels Like 59.2 °F
N
1.2
Wind Variable Wind from SW
Gusts 3.1 mph

Today
High -- | Low -- °F
--% Chance of Precip.
Yesterday
High -- | Low -- °F
Precip. -- in
Pressure 29.94 in
Visibility 0.2 miles
Clouds
Dew Point 59 °F
Humidity 98%
Rainfall Not available.
Snow Depth Not available.
5:50 AM 7:46 PM
Waxing Crescent, 6% visible
METAR KBDL 281051Z 19004KT 1/4SM R06/3000V5000FT FG VV002 15/15 A2994 RMK AO2 SFC VIS 1/2 SLP137 T01500150
Pressure 29.94 in
Visibility 0.2 miles
Clouds
Dew Point 59 °F
Humidity 98%
Rainfall Not available.
Snow Depth Not available.
5:50 AM 7:46 PM
Waxing Crescent, 6% visible
METAR KBDL 281051Z 19004KT 1/4SM R06/3000V5000FT FG VV002 15/15 A2994 RMK AO2 SFC VIS 1/2 SLP137 T01500150

Get Severe Weather Alerts

Thanks for signing up!

Be on the lookout for a verification email in your inbox.

You'll start receiving the daily forecast at 8 AM.

×

10-Day Weather Forecast

Almanac

Astronomy

Apr. 28, 2017 Rise Set
Actual Time
Civil Twilight
Nautical Twilight
Astronomical Twilight
Moon
Length of Visible Light
Length of Day
Tomorrow will be .
, % of the Moon is Illuminated

Today's Extremes

State Highs State Lows

Community

WunderPhotos

WunderBlog® & News

Nearby

Air Quality

  Air Quality AQ Index Pollutant
Not available.

Snow Depth

Station Depth Elevation

Earthquake Activity

City Distance Mag. Time & Date
Minimum magnitude displayed is 2.5.

Coastal Water Temperatures

Place Temperature

Stations

Nearby Weather Stations

Station Location Temp. Windchill Dew Point Humidity Wind Precip. Elev Updated Type
                   

Watches & Warnings

There are currently no watches in effect.